Time;durP1;ratioP1;P1;durP2;ratioP2;P2;SDS_P1;SDS_P2;PMS_P1;PMS_P2;Temp;Humidity;BMP_temperature;BMP_pressure;BME280_temperature;BME280_humidity;BME280_pressure;Samples;Min_cycle;Max_cycle;Signal;HPM_P1;HPM_P2
2022/11/17 06:57:08;;;;;;;15.85;5.05;;;;;;;4.16;100.00;98861.44;1721235;81;21104;-37
2022/11/17 06:59:34;;;;;;;6.78;4.28;;;;;;;4.14;100.00;98861.45;1720645;83;21048;-37
2022/11/17 07:02:01;;;;;;;6.97;4.10;;;;;;;4.13;100.00;98858.86;1684747;83;21056;-38
2022/11/17 07:04:28;;;;;;;8.55;4.10;;;;;;;4.11;100.00;98865.30;1713441;83;21629;-37
2022/11/17 07:06:55;;;;;;;9.43;4.28;;;;;;;4.10;100.00;98864.87;1709116;83;21032;-37
2022/11/17 07:09:21;;;;;;;6.12;3.20;;;;;;;4.06;100.00;98857.98;1683732;83;21044;-38
2022/11/17 07:11:48;;;;;;;6.30;3.25;;;;;;;4.06;100.00;98859.28;1682888;83;21017;-45
2022/11/17 07:14:14;;;;;;;10.05;3.72;;;;;;;4.06;100.00;98857.09;1688688;82;21624;-46
2022/11/17 07:16:42;;;;;;;15.30;4.60;;;;;;;4.07;100.00;98856.25;1698369;83;21074;-46
2022/11/17 07:19:09;;;;;;;28.30;8.65;;;;;;;4.05;100.00;98843.28;1694419;83;21076;-38
2022/11/17 07:21:36;;;;;;;12.35;5.75;;;;;;;4.07;100.00;98843.31;1698855;83;21071;-45
2022/11/17 07:24:03;;;;;;;9.10;5.22;;;;;;;4.08;100.00;98835.98;1692989;84;21608;-37
2022/11/17 07:26:30;;;;;;;27.95;10.72;;;;;;;4.05;100.00;98822.58;1686772;83;21669;-45
2022/11/17 07:28:56;;;;;;;33.13;16.65;;;;;;;4.04;100.00;98822.16;1684904;83;21085;-45
2022/11/17 07:31:23;;;;;;;45.58;19.05;;;;;;;4.06;100.00;98835.98;1690539;84;21034;-38
2022/11/17 07:33:52;;;;;;;15.13;7.85;;;;;;;4.06;100.00;98843.75;1692953;84;21430;-45
2022/11/17 07:36:19;;;;;;;34.53;19.07;;;;;;;4.08;100.00;98829.51;1675987;84;21116;-37
2022/11/17 07:38:45;;;;;;;83.80;42.33;;;;;;;4.07;100.00;98836.41;1683459;83;21674;-45
2022/11/17 07:41:13;;;;;;;61.15;31.75;;;;;;;4.06;100.00;98831.20;1691254;84;21043;-37
2022/11/17 07:43:40;;;;;;;50.83;26.35;;;;;;;4.04;100.00;98826.03;1697922;83;21101;-37
2022/11/17 07:46:12;;;;;;;24.50;11.93;;;;;;;4.05;100.00;98827.75;1699651;84;21103;-38
2022/11/17 07:48:41;;;;;;;30.80;13.13;;;;;;;4.03;100.00;98824.31;1672885;84;21028;-37
2022/11/17 07:51:07;;;;;;;28.17;12.00;;;;;;;4.04;100.00;98836.39;1681423;83;21073;-39
2022/11/17 07:53:34;;;;;;;37.13;18.20;;;;;;;4.06;100.00;98849.33;1659598;84;21065;-45
2022/11/17 07:56:04;;;;;;;22.20;10.10;;;;;;;4.02;100.00;98844.59;1714161;81;21097;-38
2022/11/17 07:58:31;;;;;;;18.62;8.73;;;;;;;4.03;100.00;98832.51;1730895;80;21095;-37
2022/11/17 08:00:59;;;;;;;12.60;7.28;;;;;;;4.09;100.00;98841.16;1703142;83;21438;-39
2022/11/17 08:03:25;;;;;;;23.22;11.68;;;;;;;4.11;100.00;98830.79;1677315;83;21551;-37
2022/11/17 08:05:52;;;;;;;19.42;8.93;;;;;;;4.12;100.00;98833.41;1696385;83;21088;-36
2022/11/17 08:08:18;;;;;;;14.07;6.78;;;;;;;4.11;100.00;98847.19;1696644;82;22042;-39
2022/11/17 08:10:46;;;;;;;20.43;8.85;;;;;;;4.11;100.00;98853.66;1659999;84;21060;-47
2022/11/17 08:13:14;;;;;;;9.45;5.17;;;;;;;4.15;100.00;98857.99;1665631;84;21143;-46
2022/11/17 08:15:42;;;;;;;21.93;10.30;;;;;;;4.19;100.00;98850.68;1669357;85;21587;-39
2022/11/17 08:18:10;;;;;;;11.68;5.53;;;;;;;4.24;100.00;98843.79;1675784;84;21026;-39
2022/11/17 08:20:37;;;;;;;6.55;4.12;;;;;;;4.25;100.00;98828.69;1667990;84;21007;-37
2022/11/17 08:23:04;;;;;;;9.28;5.05;;;;;;;4.32;100.00;98840.34;1666603;84;21519;-39
2022/11/17 08:25:32;;;;;;;14.07;5.80;;;;;;;4.37;100.00;98841.22;1661228;85;21063;-39
2022/11/17 08:27:59;;;;;;;6.33;3.27;;;;;;;4.39;100.00;98836.90;1672425;84;21119;-46
2022/11/17 08:30:25;;;;;;;14.65;7.62;;;;;;;4.41;100.00;98839.08;1672157;84;21122;-38
2022/11/17 08:32:52;;;;;;;15.75;6.97;;;;;;;4.38;100.00;98848.98;1667532;84;21049;-39
2022/11/17 08:53:51;;;;;;;8.28;5.08;;;;;;;4.66;100.00;98847.30;1829533;77;21068;-44
2022/11/17 08:56:18;;;;;;;5.58;3.58;;;;;;;4.56;100.00;98842.97;1815585;77;21009;-44
2022/11/17 08:58:46;;;;;;;5.03;3.10;;;;;;;4.49;100.00;98838.22;1820418;78;21062;-44
2022/11/17 09:01:14;;;;;;;7.97;2.52;;;;;;;4.52;100.00;98836.94;1813005;77;21398;-47
2022/11/17 09:03:52;;;;;;;3.70;1.85;;;;;;;4.57;100.00;98832.17;1811499;77;21023;-44
2022/11/17 09:06:25;;;;;;;5.28;2.58;;;;;;;4.60;100.00;98827.87;1794117;77;21048;-37
2022/11/17 09:08:55;;;;;;;7.37;3.00;;;;;;;4.66;100.00;98830.46;1797134;77;21436;-45
2022/11/17 09:11:24;;;;;;;10.48;4.90;;;;;;;4.65;100.00;98831.77;1804224;77;21644;-45
2022/11/17 10:51:31;;;;;;;5.30;4.40;;;;;;;3.65;100.00;98797.90;1716823;81;21520;-37
2022/11/17 10:54:21;;;;;;;4.28;3.87;;;;;;;3.61;100.00;98799.16;1727967;81;21725;-45
2022/11/17 10:56:54;;;;;;;5.62;4.58;;;;;;;3.61;100.00;98804.34;1726855;81;21148;-39
2022/11/17 10:59:52;;;;;;;5.80;4.55;;;;;;;3.60;100.00;98797.02;1733594;81;21130;-46
2022/11/17 11:02:34;;;;;;;9.45;5.15;;;;;;;3.60;100.00;98792.27;1709365;81;20983;-46
2022/11/17 11:05:16;;;;;;;4.45;3.25;;;;;;;3.61;100.00;98799.16;1710164;80;21560;-47
2022/11/17 11:07:44;;;;;;;12.37;5.00;;;;;;;3.62;100.00;98803.05;1728804;81;21006;-40
2022/11/17 11:10:21;;;;;;;6.50;5.03;;;;;;;3.61;100.00;98801.32;1725260;81;21051;-37
2022/11/17 11:12:59;;;;;;;7.92;4.85;;;;;;;3.58;100.00;98802.58;1666971;83;20974;-37
2022/11/17 11:15:32;;;;;;;5.58;4.67;;;;;;;3.49;100.00;98807.73;1713996;82;21124;-38
2022/11/17 11:18:01;;;;;;;5.78;4.72;;;;;;;3.45;100.00;98816.32;1718850;81;21029;-42
2022/11/17 11:20:53;;;;;;;6.08;4.85;;;;;;;3.43;100.00;98812.45;1704020;81;21337;-45
2022/11/17 11:23:33;;;;;;;8.95;6.50;;;;;;;3.41;100.00;98813.28;1722784;81;21405;-46
2022/11/17 11:26:17;;;;;;;7.28;6.03;;;;;;;3.41;100.00;98814.14;1712308;82;21194;-43
2022/11/17 11:29:08;;;;;;;8.78;5.67;;;;;;;3.40;100.00;98815.43;1715040;80;21056;-44
2022/11/17 11:31:46;;;;;;;6.65;5.72;;;;;;;3.38;100.00;98815.43;1645153;85;21481;-45
2022/11/17 11:34:39;;;;;;;7.30;6.15;;;;;;;3.43;100.00;98814.17;1616143;85;21148;-46
2022/11/17 11:37:11;;;;;;;7.10;5.70;;;;;;;3.44;100.00;98810.29;1643207;85;21061;-39
2022/11/17 11:40:01;;;;;;;6.87;5.62;;;;;;;3.46;100.00;98806.41;1634669;86;21096;-45
2022/11/17 11:42:57;;;;;;;5.58;4.33;;;;;;;3.45;100.00;98818.91;1637988;85;21722;-43
2022/11/17 11:45:44;;;;;;;6.45;5.15;;;;;;;3.36;100.00;98804.63;1639381;85;21060;-45
2022/11/17 11:48:33;;;;;;;9.03;6.25;;;;;;;3.29;100.00;98803.73;1632280;85;21132;-50
2022/11/17 11:51:18;;;;;;;6.65;5.05;;;;;;;3.21;100.00;98801.55;1637186;85;21009;-44
2022/11/17 11:53:55;;;;;;;7.25;4.97;;;;;;;3.22;100.00;98791.64;1640590;85;21155;-46
2022/11/17 11:56:34;;;;;;;5.03;4.53;;;;;;;3.23;100.00;98783.02;1631187;85;21094;-39
2022/11/17 11:59:13;;;;;;;10.28;5.17;;;;;;;3.26;100.00;98783.06;1616182;85;21587;-37
2022/11/17 12:01:47;;;;;;;5.72;5.00;;;;;;;3.28;100.00;98778.75;1635710;84;21117;-38
2022/11/17 12:04:41;;;;;;;6.20;4.58;;;;;;;3.30;100.00;98772.28;1634257;86;21552;-38
2022/11/17 12:07:23;;;;;;;6.20;5.08;;;;;;;3.32;100.00;98770.16;1639250;85;21120;-38
2022/11/17 12:10:14;;;;;;;7.12;5.00;;;;;;;3.32;100.00;98755.08;1720708;80;21116;-46
2022/11/17 12:12:41;;;;;;;6.85;4.85;;;;;;;3.32;100.00;98749.48;1728041;82;21080;-44
2022/11/17 12:15:19;;;;;;;6.75;5.08;;;;;;;3.27;100.00;98746.44;1683236;82;21045;-46
2022/11/17 12:17:59;;;;;;;6.10;5.50;;;;;;;3.25;100.00;98741.67;1722202;81;21068;-39
2022/11/17 12:20:34;;;;;;;7.22;5.65;;;;;;;3.25;100.00;98736.09;1706057;82;21860;-38
2022/11/17 12:23:36;;;;;;;8.15;5.87;;;;;;;3.24;100.00;98730.89;1707096;80;21559;-39
2022/11/17 12:26:04;;;;;;;7.33;5.53;;;;;;;3.19;100.00;98725.30;1721647;81;21016;-37
2022/11/17 12:28:40;;;;;;;6.47;5.45;;;;;;;3.16;100.00;98725.27;1711419;82;21863;-38
2022/11/17 12:31:11;;;;;;;6.33;5.50;;;;;;;3.11;100.00;98726.97;1720267;81;21578;-37
